Nogalus, Texas
Current Conditions -  °F | °C
As of 6:53 PM on Tuesday 25 Nov 2014 (Local Time) from KLFK Reporting Station
Clear Clear  
Wind Chill: 49°   Ceiling: Unl
Heat Index: 49°   Visibility: 10mi
Dew Point: 39°   Wind: 0mph
Humidity: 69%   Direction: NA
Pressure: 30.21"   Gusts: NA
Location:  31.0585°N, 95.0561°W
Report Text: KLFK 260053Z AUTO 00000KT 10SM CLR 09/04 A3021 RMK AO2 SLP229 T00940039
Loading
Personal Weather Stations






























Interactive Weather Map New forecast layout! Learn more

10-Day Weather Forecast

Advertisements
Track Severe Weather on mobile